Latest Weather Observations for Cape Willoughby

IDS60801

Issued at 8:21 pm CDT Sunday 24 January 2021 (issued every 10 minutes, with the page automatically refreshed every 10 minutes)

About weather observations | Map of weather stations | Latest weather observations for SA | Other Formats
Station Details ID: 022803 Name: CAPE WILLOUGHBY Lat: -35.84 Lon: 138.13 Height: 55.0 m
Data from the previous 72 hours. | See also: Recent months at Cape Willoughby
Date/Time
CDT
Temp
°C
App
Temp
°C
Dew
Point
°C
Rel
Hum
%
Delta-T
°C
Wind Press
QNH
hPa
Press
MSL
hPa
Rain since
9am
mm
Dir  Spd
km/h
Gust
km/h
Spd
kts
Gust
kts
24/08:00pm 26.2 22.8 10.4 37 8.8 SW 19 22 10 12 1001.9 1001.7 0.0
24/07:30pm 25.8 21.7 11.6 41 8.1 SW 24 26 13 14 1002.0 1001.8 0.0
24/07:00pm 26.2 22.2 11.9 41 8.2 SW 24 28 13 15 1002.0 1001.8 0.0
24/06:30pm 26.7 21.2 12.0 40 8.5 SW 32 39 17 21 1001.8 1001.6 0.0
24/06:00pm 26.5 21.3 12.9 43 8.0 SW 32 37 17 20 1001.9 1001.7 0.0
24/05:30pm 26.1 20.6 12.5 42 7.9 SW 33 37 18 20 1001.9 1001.7 0.0
24/05:00pm 26.3 19.5 12.0 41 8.2 SW 39 44 21 24 1002.0 1001.8 0.0
24/04:30pm 26.3 19.0 12.7 43 7.9 SW 43 50 23 27 1002.3 1002.1 0.0
24/04:00pm 29.7 23.9 10.8 31 10.8 SW 32 43 17 23 1002.4 1002.2 0.0
24/03:57pm 30.1 24.8 11.1 31 11.0 SW 30 41 16 22 1002.5 1002.3 0.0
24/03:30pm 35.2 28.5 7.3 18 15.6 NNW 32 37 17 20 1002.4 1002.2 0.0
24/03:00pm 36.4 29.3 5.6 15 16.9 NNW 32 37 17 20 1002.5 1002.3 0.0
24/02:30pm 36.2 28.9 5.5 15 16.8 NNW 33 43 18 23 1002.7 1002.5 0.0
24/02:00pm 33.8 27.0 7.0 19 14.7 NNW 32 41 17 22 1002.9 1002.7 0.0
24/01:30pm 35.3 27.7 5.7 16 16.1 NNW 35 44 19 24 1003.3 1003.1 0.0
24/01:10pm 36.2 30.3 7.3 17 16.2 NNW 28 44 15 24 1003.6 1003.4 0.0
24/01:00pm 32.0 28.7 9.5 25 12.8 N 17 20 9 11 1003.9 1003.7 0.0
24/12:30pm 29.2 28.9 13.4 38 9.4 N 7 13 4 7 1004.4 1004.2 0.0
24/12:00pm 26.8 26.9 14.5 46 7.4 NNE 7 11 4 6 1004.6 1004.4 0.0
24/11:30am 26.1 26.3 14.6 49 6.9 NNE 7 11 4 6 1004.9 1004.7 0.0
24/11:00am 25.2 25.1 14.9 52 6.2 NE 9 15 5 8 1005.1 1004.9 0.0
24/10:30am 24.9 25.3 14.7 53 6.1 SE 6 9 3 5 1005.3 1005.1 0.0
24/10:00am 25.7 26.0 12.2 43 7.8 S 2 6 1 3 1005.5 1005.3 0.0
24/09:30am 26.8 27.1 10.9 37 9.0 CALM 0 2 0 1 1005.6 1005.4 0.0
24/09:00am 25.9 24.7 11.6 40 8.2 S 9 11 5 6 1005.8 1005.6 0.0
24/08:30am 26.7 23.7 10.8 37 9.0 SSW 17 20 9 11 1005.9 1005.7 0.0
24/08:00am 27.2 25.4 10.8 36 9.3 NNE 11 20 6 11 1005.7 1005.5 0.0
24/07:30am 26.8 23.5 11.7 39 8.7 NE 20 28 11 15 1005.1 1004.9 0.0
24/07:00am 25.5 24.6 13.7 48 7.0 NNE 11 17 6 9 1005.1 1004.9 0.0
24/06:30am 25.2 23.6 14.0 49 6.6 NE 15 22 8 12 1005.0 1004.8 0.0
24/06:00am 24.0 21.5 14.1 54 5.9 NE 20 32 11 17 1004.8 1004.6 0.0
24/05:30am 25.5 22.5 13.7 48 7.0 NE 22 30 12 16 1004.6 1004.4 0.0
24/05:00am 24.1 21.6 14.2 54 5.9 NNE 20 33 11 18 1004.7 1004.5 0.0
24/04:57am 23.8 20.2 14.2 55 5.7 NE 26 37 14 20 1004.7 1004.5 0.0
24/04:30am 25.4 19.4 13.3 47 7.1 NE 37 41 20 22 1004.5 1004.3 0.0
24/04:00am 25.3 18.4 12.9 46 7.2 NE 41 43 22 23 1004.6 1004.4 0.0
24/03:30am 24.7 18.4 13.6 50 6.5 NE 39 43 21 23 1004.9 1004.7 0.0
24/03:00am 24.5 18.6 13.7 51 6.4 NE 37 41 20 22 1005.3 1005.1 0.0
24/02:30am 24.9 18.7 12.8 47 7.0 NE 37 43 20 23 1005.7 1005.5 0.0
24/02:00am 23.7 21.2 13.6 53 5.9 NE 19 28 10 15 1006.4 1006.2 0.0
24/01:30am 23.2 22.3 13.7 55 5.6 NE 11 19 6 10 1007.0 1006.8 0.0
24/01:00am 23.4 21.1 13.0 52 6.0 NE 17 24 9 13 1007.4 1007.2 0.0
24/12:30am 22.3 21.0 14.7 62 4.5 NE 15 20 8 11 1007.7 1007.5 0.0
24/12:00am 22.2 20.5 14.6 62 4.5 NNE 17 22 9 12 1008.1 1007.9 0.0
 
Date/Time
CDT
Temp
°C
App
Temp
°C
Dew
Point
°C
Rel
Hum
%
Delta-T
°C
Wind Press
QNH
hPa
Press
MSL
hPa
Rain since
9am
mm
Dir  Spd
km/h
Gust
km/h
Spd
kts
Gust
kts
23/11:30pm 21.8 20.5 14.7 64 4.2 NE 15 19 8 10 1008.3 1008.1 0.0
23/11:00pm 21.2 20.8 15.3 69 3.5 NE 11 17 6 9 1008.6 1008.4 0.0
23/10:30pm 21.2 20.6 15.7 71 3.3 NE 13 17 7 9 1008.6 1008.4 0.0
23/10:00pm 20.7 19.7 16.7 78 2.4 NNE 17 24 9 13 1008.4 1008.2 0.0
23/09:30pm 20.7 20.4 16.5 77 2.5 NE 13 17 7 9 1008.8 1008.6 0.0
23/09:00pm 20.7 21.1 16.3 76 2.7 NE 9 13 5 7 1008.8 1008.6 0.0
23/08:30pm 20.9 21.3 16.3 75 2.8 NE 9 13 5 7 1008.7 1008.5 0.0
23/08:00pm 20.8 21.0 16.8 78 2.4 NE 11 13 6 7 1008.6 1008.4 0.0
23/07:30pm 20.9 21.7 17.3 80 2.2 NNE 9 11 5 6 1008.7 1008.5 0.0
23/07:00pm 21.5 22.7 17.3 77 2.6 NE 7 11 4 6 1008.7 1008.5 0.0
23/06:30pm 21.8 23.1 17.0 74 2.9 ESE 6 9 3 5 1008.7 1008.5 0.0
23/06:00pm 21.9 23.1 17.3 75 2.8 SSE 7 9 4 5 1008.7 1008.5 0.0
23/05:30pm 22.3 23.4 17.9 76 2.7 S 9 9 5 5 1008.7 1008.5 0.0
23/05:00pm 22.2 23.5 17.6 75 2.9 S 7 11 4 6 1008.9 1008.7 0.0
23/04:30pm 22.6 24.1 17.7 74 3.1 SSE 6 7 3 4 1008.9 1008.7 0.0
23/04:00pm 22.1 23.4 17.2 74 3.0 ESE 6 6 3 3 1009.0 1008.8 0.0
23/03:30pm 22.3 23.7 17.4 74 3.0 E 6 7 3 4 1009.3 1009.1 0.0
23/03:00pm 22.0 23.0 16.9 73 3.1 E 7 7 4 4 1009.7 1009.5 0.0
23/02:30pm 22.5 23.8 17.6 74 3.0 ESE 7 9 4 5 1010.1 1009.9 0.0
23/02:00pm 22.9 24.1 17.4 71 3.4 ESE 7 9 4 5 1010.2 1010.1 0.0
23/01:30pm 22.6 23.9 17.5 73 3.2 ESE 7 9 4 5 1010.4 1010.3 0.0
23/01:00pm 22.6 23.9 17.5 73 3.2 ESE 7 9 4 5 1010.6 1010.5 0.0
23/12:30pm 22.4 23.6 17.3 73 3.2 ESE 7 9 4 5 1010.9 1010.8 0.0
23/12:00pm 21.3 22.2 16.5 74 2.9 E 7 9 4 5 1011.1 1011.0 0.0
23/11:30am 21.6 22.1 16.6 73 3.0 E 9 11 5 6 1011.3 1011.2 0.0
23/11:00am 20.9 21.4 16.5 76 2.7 E 9 11 5 6 1011.4 1011.3 0.0
23/10:30am 20.9 21.8 16.7 77 2.6 E 7 11 4 6 1011.8 1011.7 0.0
23/10:00am 20.8 21.0 16.8 78 2.4 ENE 11 15 6 8 1011.6 1011.5 0.0
23/09:30am 20.1 19.4 16.5 80 2.2 E 15 19 8 10 1011.4 1011.3 0.0
23/09:00am 19.9 19.3 16.7 82 1.9 E 15 17 8 9 1011.5 1011.4 0.0
23/08:30am 19.4 18.8 16.6 84 1.7 E 15 17 8 9 1011.3 1011.2 0.0
23/08:00am 18.9 17.9 16.5 86 1.4 E 17 20 9 11 1011.2 1011.1 0.0
23/07:30am 18.3 17.3 16.5 89 1.1 E 17 20 9 11 1011.0 1010.9 0.0
23/07:00am 17.8 17.0 16.1 90 1.0 E 15 19 8 10 1011.0 1010.9 0.0
23/06:30am 17.4 16.4 15.7 90 1.0 ENE 15 19 8 10 1010.8 1010.7 0.0
23/06:00am 17.3 15.5 15.6 90 1.0 ENE 19 22 10 12 1010.5 1010.4 0.0
23/05:30am 17.2 15.4 15.5 90 1.0 ENE 19 22 10 12 1010.4 1010.3 0.0
23/05:00am 17.0 15.5 15.3 90 1.0 E 17 20 9 11 1010.5 1010.4 0.0
23/04:30am 17.0 15.5 15.3 90 1.0 E 17 20 9 11 1010.4 1010.3 0.0
23/04:00am 16.9 15.3 15.1 89 1.0 E 17 22 9 12 1010.6 1010.5 0.0
23/03:30am 16.8 15.2 15.0 89 1.0 E 17 20 9 11 1011.0 1010.9 0.0
23/03:00am 16.9 15.7 15.1 89 1.0 E 15 19 8 10 1011.2 1011.1 0.0
23/02:30am 16.9 15.3 14.9 88 1.2 E 17 22 9 12 1011.5 1011.4 0.0
23/02:00am 16.9 14.9 14.9 88 1.2 ESE 19 22 10 12 1011.6 1011.5 0.0
23/01:30am 16.9 14.9 14.9 88 1.2 ESE 19 24 10 13 1011.8 1011.7 0.0
23/01:00am 17.0 15.4 15.0 88 1.2 ESE 17 20 9 11 1012.1 1012.0 0.0
23/12:30am 17.1 16.0 15.3 89 1.1 SE 15 20 8 11 1012.3 1012.2 0.0
23/12:00am 17.2 15.4 15.4 89 1.1 SE 19 22 10 12 1012.3 1012.2 0.0
 
Date/Time
CDT
Temp
°C
App
Temp
°C
Dew
Point
°C
Rel
Hum
%
Delta-T
°C
Wind Press
QNH
hPa
Press
MSL
hPa
Rain since
9am
mm
Dir  Spd
km/h
Gust
km/h
Spd
kts
Gust
kts
22/11:30pm 17.4 16.4 15.6 89 1.1 SE 15 19 8 10 1012.5 1012.4 0.0
22/11:00pm 17.4 16.7 15.4 88 1.2 SE 13 17 7 9 1012.8 1012.7 0.0
22/10:30pm 17.5 16.8 15.3 87 1.3 ESE 13 17 7 9 1012.7 1012.6 0.0
22/10:00pm 17.4 16.6 15.0 86 1.4 ESE 13 17 7 9 1012.9 1012.8 0.0
22/09:30pm 17.5 16.7 15.1 86 1.4 ESE 13 15 7 8 1012.5 1012.4 0.0
22/09:00pm 17.6 16.7 14.9 84 1.6 SE 13 17 7 9 1012.6 1012.5 0.0
22/08:30pm 18.0 16.7 14.9 82 1.8 SE 15 19 8 10 1012.6 1012.5 0.0
22/08:00pm 18.5 17.1 14.4 77 2.4 SE 15 19 8 10 1012.4 1012.3 0.0
22/07:30pm 19.0 17.2 14.5 75 2.6 SSE 17 22 9 12 1012.1 1012.0 0.0
22/07:00pm 19.4 17.9 14.2 72 3.0 SSE 15 17 8 9 1012.0 1011.9 0.0
22/06:30pm 20.1 19.8 14.5 70 3.3 SE 9 13 5 7 1011.9 1011.8 0.0
22/06:00pm 20.0 19.2 14.1 69 3.4 SE 11 15 6 8 1011.8 1011.7 0.0
22/05:30pm 20.4 19.8 14.5 69 3.4 SE 11 15 6 8 1011.7 1011.6 0.0
22/05:00pm 20.9 20.1 14.1 65 4.0 SE 11 15 6 8 1012.1 1012.0 0.0
22/04:30pm 20.6 19.6 14.5 68 3.6 SSE 13 17 7 9 1012.4 1012.3 0.0
22/04:00pm 20.6 19.5 13.1 62 4.3 SE 11 15 6 8 1012.7 1012.6 0.0
22/03:30pm 20.4 19.3 14.3 68 3.6 SSE 13 19 7 10 1012.8 1012.7 0.0
22/03:00pm 19.7 18.0 12.5 63 4.0 SSE 13 17 7 9 1013.0 1012.9 0.0
22/02:30pm 19.5 17.7 12.0 62 4.2 SSE 13 17 7 9 1013.0 1012.9 0.0
22/02:00pm 19.6 18.2 13.5 68 3.5 SSE 13 17 7 9 1013.0 1012.9 0.0
22/01:30pm 18.9 18.1 15.0 78 2.3 SSE 13 17 7 9 1013.1 1013.0 0.0
22/01:00pm 19.1 18.0 15.4 79 2.2 SSE 15 20 8 11 1013.2 1013.1 0.0
22/12:30pm 19.5 17.5 15.6 78 2.3 S 20 24 11 13 1013.1 1013.0 0.0
22/12:00pm 19.4 17.4 15.5 78 2.3 S 20 24 11 13 1013.1 1013.0 0.0
22/11:30am 18.9 17.5 15.6 81 2.0 S 17 20 9 11 1013.1 1013.0 0.0
22/11:00am 18.6 17.3 15.7 83 1.7 S 17 20 9 11 1013.0 1012.9 0.0
22/10:30am 18.3 17.0 15.7 85 1.5 S 17 22 9 12 1013.0 1012.9 0.0
22/10:00am 18.3 17.5 16.1 87 1.3 S 15 22 8 12 1013.0 1012.9 0.0
22/09:30am 18.1 17.2 15.9 87 1.3 S 15 20 8 11 1013.0 1012.9 0.0
22/09:00am 17.9 17.4 15.9 88 1.2 S 13 17 7 9 1012.6 1012.5 0.0
22/08:30am 17.9 18.6 16.1 89 1.1 S 7 11 4 6 1012.5 1012.4 0.0
22/08:00am 17.8 19.2 16.3 91 0.9 SSW 4 7 2 4 1012.3 1012.2 0.0
22/07:30am 17.1 17.3 15.8 92 0.8 SW 9 9 5 5 1012.1 1012.0 0.0
22/07:00am 16.5 16.8 15.0 91 0.9 SW 7 9 4 5 1011.9 1011.8 0.0
22/06:30am 16.3 16.7 14.8 91 0.9 SSW 6 9 3 5 1011.8 1011.7 0.0
22/06:00am 16.6 18.2 15.0 90 0.9 CALM 0 0 0 0 1011.2 1011.1 0.0
22/05:30am 16.6 17.1 15.0 90 0.9 S 6 7 3 4 1010.8 1010.7 0.0
22/05:00am 16.5 17.9 14.5 88 1.1 CALM 0 0 0 0 1010.7 1010.6 0.0
22/04:30am 16.8 17.9 14.6 87 1.3 SE 2 4 1 2 1010.7 1010.6 0.0
22/04:00am 16.9 17.7 14.7 87 1.3 E 4 6 2 3 1010.6 1010.5 0.0
22/03:30am 16.9 17.2 14.5 86 1.4 ESE 6 6 3 3 1010.4 1010.3 0.0
22/03:00am 17.1 16.9 14.6 85 1.4 SE 9 9 5 5 1010.3 1010.2 0.0
22/02:30am 17.1 16.8 14.4 84 1.6 E 9 11 5 6 1010.4 1010.3 0.0
22/02:00am 17.1 17.2 14.4 84 1.6 ESE 7 9 4 5 1010.8 1010.7 0.0
22/01:30am 17.4 17.1 14.3 82 1.8 SE 9 11 5 6 1011.1 1011.0 0.0
22/01:00am 17.2 16.8 14.1 82 1.8 SE 9 11 5 6 1011.1 1011.0 0.0
22/12:30am 17.4 17.6 14.1 81 1.9 ESE 6 7 3 4 1011.2 1011.1 0.0
22/12:00am 17.5 17.4 14.0 80 2.0 SE 7 9 4 5 1011.6 1011.5 0.0
 
Date/Time
CDT
Temp
°C
App
Temp
°C
Dew
Point
°C
Rel
Hum
%
Delta-T
°C
Wind Press
QNH
hPa
Press
MSL
hPa
Rain since
9am
mm
Dir  Spd
km/h
Gust
km/h
Spd
kts
Gust
kts
21/11:30pm 17.8 17.4 14.1 79 2.1 SSE 9 13 5 7 1012.0 1011.9 0.0
21/11:00pm 17.9 16.5 14.4 80 2.0 S 15 20 8 11 1012.4 1012.3 0.0
21/10:30pm 18.1 17.3 15.0 82 1.8 S 13 17 7 9 1012.4 1012.3 0.0
21/10:00pm 18.2 17.3 14.9 81 1.9 S 13 17 7 9 1012.4 1012.3 0.0
21/09:30pm 18.4 18.3 14.9 80 2.0 S 9 11 5 6 1012.0 1011.9 0.0
21/09:00pm 18.5 18.0 15.0 80 2.0 S 11 15 6 8 1012.0 1011.9 0.0
21/08:30pm 18.8 17.6 15.1 79 2.2 S 15 19 8 10 1012.0 1011.9 0.0

Other formats

Comma delimited format used in spreadsheet applications
http://www.bom.gov.au/fwo/IDS60801/IDS60801.94822.axf

JavaScript Object Notation format (JSON) in row-major order
http://www.bom.gov.au/fwo/IDS60801/IDS60801.94822.json

Data quality

Most of these data are generated automatically and are frequently updated. Quality checks on data are not normally performed. It is possible for incorrect values to appear. Refer to information at About Latest Weather Observations and please check the disclaimer before using these data.